Time;durP1;ratioP1;P1;durP2;ratioP2;P2;SDS_P1;SDS_P2;PMS_P1;PMS_P2;Temp;Humidity;BMP_temperature;BMP_pressure;BME280_temperature;BME280_humidity;BME280_pressure;Samples;Min_cycle;Max_cycle;Signal;HPM_P1;HPM_P2
2023/07/29 00:02:13;;;;;;;8.80;5.20;;;17.30;99.90;;;;;;5052702;28;20244;-78
2023/07/29 00:04:44;;;;;;;7.25;4.13;;;17.40;99.90;;;;;;5052564;28;20206;-79
2023/07/29 00:07:14;;;;;;;6.95;4.68;;;17.50;99.90;;;;;;5052791;28;20214;-79
2023/07/29 00:09:45;;;;;;;6.72;3.90;;;17.60;99.90;;;;;;5052859;28;20664;-79
2023/07/29 00:12:16;;;;;;;7.72;4.85;;;17.60;99.90;;;;;;5052688;28;20554;-79
2023/07/29 00:14:47;;;;;;;10.93;4.35;;;17.70;99.90;;;;;;5052873;28;20292;-80
2023/07/29 00:17:20;;;;;;;6.90;3.80;;;17.90;99.90;;;;;;5052802;28;20192;-79
2023/07/29 00:19:51;;;;;;;7.32;3.78;;;18.10;99.90;;;;;;5052857;28;20276;-79
2023/07/29 00:22:21;;;;;;;6.82;3.00;;;18.40;99.90;;;;;;5056246;28;20276;-79
2023/07/29 00:24:57;;;;;;;5.85;3.05;;;18.60;99.90;;;;;;5060469;28;20186;-79
2023/07/29 00:27:28;;;;;;;6.20;3.00;;;18.90;99.90;;;;;;5059434;28;20259;-81
2023/07/29 00:29:59;;;;;;;7.22;2.50;;;19.20;99.90;;;;;;5066386;28;20192;-82
2023/07/29 00:32:33;;;;;;;2.97;1.85;;;19.40;99.90;;;;;;5056204;28;20197;-81
2023/07/29 00:35:04;;;;;;;5.45;1.73;;;19.60;99.90;;;;;;5054027;28;20217;-80
2023/07/29 00:37:35;;;;;;;2.80;1.50;;;19.80;99.90;;;;;;5054967;28;20221;-79
2023/07/29 00:40:06;;;;;;;1.92;1.08;;;20.00;99.90;;;;;;5053967;28;20197;-81
2023/07/29 00:42:36;;;;;;;1.50;1.13;;;20.10;99.90;;;;;;5054188;28;20213;-83
2023/07/29 00:45:08;;;;;;;2.83;1.10;;;20.30;99.90;;;;;;5055609;28;20556;-80
2023/07/29 00:47:41;;;;;;;2.67;0.70;;;20.50;99.90;;;;;;5055568;28;20222;-81
2023/07/29 00:50:14;;;;;;;3.15;1.10;;;20.70;99.90;;;;;;5056110;28;20197;-80
2023/07/29 00:52:45;;;;;;;5.80;1.17;;;20.80;99.90;;;;;;5056000;28;20280;-80
2023/07/29 00:55:16;;;;;;;1.10;0.80;;;21.00;99.90;;;;;;5055645;28;20193;-80
2023/07/29 00:57:48;;;;;;;1.75;0.73;;;21.10;99.90;;;;;;5055844;28;20626;-81
2023/07/29 01:00:19;;;;;;;2.00;0.80;;;21.10;99.90;;;;;;5062030;28;20224;-81
2023/07/29 01:02:52;;;;;;;2.17;0.82;;;21.10;99.90;;;;;;5075080;28;20241;-82
2023/07/29 01:05:24;;;;;;;1.10;0.80;;;21.20;99.90;;;;;;5072997;28;20268;-82
2023/07/29 01:08:00;;;;;;;3.53;0.80;;;21.30;99.90;;;;;;5069916;28;20292;-81
2023/07/29 01:10:41;;;;;;;1.75;0.85;;;21.40;99.90;;;;;;5068668;28;20277;-75
2023/07/29 01:13:20;;;;;;;1.67;0.80;;;21.60;99.90;;;;;;5056582;28;20200;-76
2023/07/29 01:15:56;;;;;;;1.38;0.73;;;21.80;99.90;;;;;;5055117;28;20556;-77
2023/07/29 01:18:32;;;;;;;1.55;0.70;;;21.90;99.90;;;;;;5063904;28;20192;-77
2023/07/29 01:21:05;;;;;;;1.73;0.80;;;22.10;99.90;;;;;;5075290;28;20195;-78
2023/07/29 01:23:39;;;;;;;2.33;0.98;;;22.10;99.90;;;;;;5075133;28;20235;-74
2023/07/29 01:26:10;;;;;;;0.77;0.65;;;21.80;99.90;;;;;;5075112;28;20193;-78
2023/07/29 01:28:41;;;;;;;1.75;0.80;;;21.50;99.90;;;;;;5075189;28;20189;-76
2023/07/29 01:31:18;;;;;;;1.02;0.60;;;21.60;99.90;;;;;;5075060;28;20196;-74
2023/07/29 01:33:55;;;;;;;1.77;0.80;;;21.70;99.90;;;;;;5074434;28;20189;-78
2023/07/29 01:36:30;;;;;;;1.25;0.77;;;21.90;99.90;;;;;;5074838;28;20220;-78
2023/07/29 01:39:04;;;;;;;2.15;0.80;;;22.10;99.90;;;;;;5074821;28;20192;-78
2023/07/29 01:41:36;;;;;;;2.20;1.05;;;22.10;99.90;;;;;;5074546;28;20266;-79
2023/07/29 01:44:08;;;;;;;1.10;0.73;;;22.00;99.90;;;;;;5073345;28;20189;-75
2023/07/29 01:46:40;;;;;;;2.92;0.82;;;22.00;99.90;;;;;;5074818;28;20216;-74
2023/07/29 01:49:11;;;;;;;2.65;0.80;;;22.00;99.90;;;;;;5074745;28;20199;-77
2023/07/29 01:51:43;;;;;;;6.78;0.80;;;22.00;99.90;;;;;;5074750;28;20284;-77
2023/07/29 01:54:16;;;;;;;1.92;0.70;;;22.00;99.90;;;;;;5074529;28;20633;-79
2023/07/29 01:56:46;;;;;;;0.90;0.80;;;21.80;99.90;;;;;;5074687;28;20276;-74
2023/07/29 01:59:17;;;;;;;1.20;0.68;;;21.70;99.90;;;;;;5074633;28;20189;-77
2023/07/29 02:01:48;;;;;;;2.20;0.63;;;21.70;99.90;;;;;;5074439;28;20592;-75
2023/07/29 02:04:19;;;;;;;0.82;0.50;;;21.60;99.90;;;;;;5074458;28;20207;-75
2023/07/29 02:06:50;;;;;;;1.48;0.52;;;21.70;99.90;;;;;;5074408;28;20545;-76
2023/07/29 02:09:23;;;;;;;2.13;0.52;;;21.80;99.90;;;;;;5074228;28;20200;-77
2023/07/29 02:11:54;;;;;;;1.80;0.63;;;22.00;99.90;;;;;;5074294;28;20188;-76
2023/07/29 02:14:25;;;;;;;1.98;0.70;;;22.10;99.90;;;;;;5074263;28;20555;-80
2023/07/29 02:16:56;;;;;;;1.92;0.75;;;22.20;99.90;;;;;;5074463;28;20275;-79
2023/07/29 02:19:27;;;;;;;2.25;0.80;;;22.30;99.90;;;;;;5074145;28;20200;-80
2023/07/29 02:21:57;;;;;;;1.77;0.77;;;22.50;99.90;;;;;;5073993;28;20203;-79
2023/07/29 02:24:30;;;;;;;3.25;0.90;;;22.70;99.90;;;;;;5073821;28;20197;-78
2023/07/29 02:27:01;;;;;;;0.77;0.70;;;22.80;99.90;;;;;;5073914;28;20209;-84
2023/07/29 02:29:32;;;;;;;0.88;0.77;;;22.90;99.90;;;;;;5073838;28;20231;-77
2023/07/29 02:32:03;;;;;;;1.50;0.70;;;23.10;99.90;;;;;;5073768;28;20188;-81
2023/07/29 02:34:34;;;;;;;1.88;0.70;;;23.30;99.90;;;;;;5073873;28;20239;-78
2023/07/29 02:37:05;;;;;;;2.38;0.80;;;23.30;99.90;;;;;;5073431;28;20200;-77
2023/07/29 02:39:38;;;;;;;1.67;0.70;;;23.40;99.90;;;;;;5074209;28;20197;-82
2023/07/29 02:42:09;;;;;;;1.58;0.80;;;23.40;99.90;;;;;;5074062;28;20280;-80
2023/07/29 02:44:40;;;;;;;1.70;0.90;;;23.40;99.90;;;;;;5073759;28;20199;-82
2023/07/29 02:47:11;;;;;;;1.90;0.85;;;23.30;99.90;;;;;;5073756;28;20213;-83
2023/07/29 02:49:41;;;;;;;1.60;0.80;;;23.30;99.90;;;;;;5073514;28;20185;-80
2023/07/29 02:52:13;;;;;;;1.02;0.85;;;23.20;99.90;;;;;;5073450;28;20189;-89
2023/07/29 02:54:46;;;;;;;1.95;1.17;;;23.20;99.90;;;;;;5073001;28;20193;-76
2023/07/29 02:57:17;;;;;;;1.58;1.13;;;23.10;99.90;;;;;;5073924;28;20613;-83
2023/07/29 02:59:48;;;;;;;1.30;1.10;;;23.00;99.90;;;;;;5073494;28;20222;-82
2023/07/29 03:02:19;;;;;;;1.52;1.35;;;22.90;99.90;;;;;;5073125;28;20236;-84
2023/07/29 03:04:51;;;;;;;2.92;1.77;;;22.70;99.90;;;;;;5068030;28;20225;-83
2023/07/29 03:07:22;;;;;;;3.20;2.35;;;22.60;99.90;;;;;;5066285;28;20216;-81
2023/07/29 03:09:55;;;;;;;4.65;2.80;;;22.50;99.90;;;;;;5072647;28;20193;-89
2023/07/29 03:12:26;;;;;;;2.70;2.42;;;22.30;99.90;;;;;;5058951;28;20193;-93
2023/07/29 03:14:57;;;;;;;3.70;2.78;;;22.20;99.90;;;;;;5073470;28;20193;-90
2023/07/29 03:17:28;;;;;;;4.38;3.22;;;22.20;99.90;;;;;;5053629;28;20666;-87
2023/07/29 03:19:58;;;;;;;4.72;3.40;;;22.10;99.90;;;;;;5053661;28;20194;-89
2023/07/29 03:22:29;;;;;;;3.25;2.60;;;22.10;99.90;;;;;;5053773;28;20265;-86
2023/07/29 03:25:02;;;;;;;3.65;2.80;;;22.30;99.90;;;;;;5053346;28;20247;-87
2023/07/29 03:27:36;;;;;;;3.67;2.50;;;22.60;99.90;;;;;;5053219;28;20229;-86
2023/07/29 03:30:07;;;;;;;4.00;2.83;;;22.80;99.90;;;;;;5053420;28;20251;-84
2023/07/29 03:32:38;;;;;;;8.63;6.78;;;22.80;99.90;;;;;;5054683;28;20221;-80
2023/07/29 03:35:09;;;;;;;6.03;3.90;;;22.70;99.90;;;;;;5070899;28;20693;-86
2023/07/29 03:37:40;;;;;;;4.53;3.35;;;22.60;99.90;;;;;;5073095;28;20196;-84
2023/07/29 03:40:13;;;;;;;2.42;1.60;;;22.50;99.90;;;;;;5073152;28;20197;-85
2023/07/29 03:42:44;;;;;;;1.80;1.58;;;22.40;99.90;;;;;;5072801;28;20633;-82
2023/07/29 03:45:15;;;;;;;2.15;1.40;;;22.30;99.90;;;;;;5071573;28;20220;-85
2023/07/29 03:47:45;;;;;;;3.17;1.70;;;22.20;99.90;;;;;;5072437;28;20219;-86
2023/07/29 03:50:16;;;;;;;1.70;1.60;;;22.20;99.90;;;;;;5072839;28;20195;-87
2023/07/29 03:52:47;;;;;;;2.20;1.80;;;22.20;99.90;;;;;;5070884;28;20229;-85
2023/07/29 03:55:20;;;;;;;3.05;0.90;;;22.20;99.90;;;;;;5072897;28;20185;-85
2023/07/29 03:57:51;;;;;;;2.63;0.90;;;22.20;99.90;;;;;;5073279;28;20250;-87
2023/07/29 04:00:22;;;;;;;1.58;1.00;;;22.30;99.90;;;;;;5072422;28;20193;-82
2023/07/29 04:02:52;;;;;;;2.20;1.13;;;22.40;99.90;;;;;;5052725;28;20570;-85
2023/07/29 04:05:23;;;;;;;2.13;1.10;;;22.40;99.90;;;;;;5067384;28;20199;-85
2023/07/29 04:07:55;;;;;;;4.30;1.00;;;22.40;99.90;;;;;;5076197;28;20219;-83
2023/07/29 04:10:27;;;;;;;4.80;1.00;;;22.50;99.90;;;;;;5074023;28;20196;-86
2023/07/29 04:12:58;;;;;;;3.33;1.10;;;22.40;99.90;;;;;;5065684;28;20189;-84
2023/07/29 04:15:29;;;;;;;2.20;1.23;;;22.30;99.90;;;;;;5055568;28;20193;-79
2023/07/29 04:18:00;;;;;;;2.35;1.10;;;22.20;99.90;;;;;;5054348;28;20566;-84
2023/07/29 04:20:31;;;;;;;2.67;1.17;;;22.10;99.90;;;;;;5054490;28;20197;-79
2023/07/29 04:23:02;;;;;;;2.42;1.17;;;22.00;99.90;;;;;;5054379;28;20182;-84
2023/07/29 04:25:34;;;;;;;1.77;1.00;;;22.00;99.90;;;;;;5054307;28;20268;-83
2023/07/29 04:28:05;;;;;;;1.85;1.17;;;22.10;99.90;;;;;;5058306;28;20269;-83
2023/07/29 04:30:36;;;;;;;3.25;1.05;;;22.20;99.90;;;;;;5070352;28;20719;-82
2023/07/29 04:33:07;;;;;;;3.17;1.17;;;22.20;99.90;;;;;;5074383;28;20555;-83
2023/07/29 04:35:37;;;;;;;1.45;0.85;;;22.20;99.90;;;;;;5075773;28;20231;-79
2023/07/29 04:38:08;;;;;;;3.17;1.08;;;22.20;99.90;;;;;;5076255;28;20193;-83
2023/07/29 04:40:41;;;;;;;3.40;1.23;;;22.10;99.90;;;;;;5075949;28;20606;-76
2023/07/29 04:43:12;;;;;;;2.17;1.10;;;22.10;99.90;;;;;;5075821;28;20193;-81
2023/07/29 04:45:46;;;;;;;3.42;1.20;;;22.00;99.90;;;;;;5076043;28;20243;-80
2023/07/29 04:48:17;;;;;;;2.55;1.20;;;22.00;99.90;;;;;;5059043;28;20680;-81
2023/07/29 04:50:48;;;;;;;2.40;1.20;;;21.90;99.90;;;;;;5055890;28;20560;-83
2023/07/29 04:53:19;;;;;;;4.60;1.58;;;21.90;99.90;;;;;;5055966;28;20205;-84
2023/07/29 04:55:51;;;;;;;2.35;1.13;;;21.90;99.90;;;;;;5055579;28;20197;-83
2023/07/29 04:58:22;;;;;;;2.97;1.30;;;21.80;99.90;;;;;;5055846;28;20193;-79
2023/07/29 05:00:53;;;;;;;3.00;1.25;;;21.70;99.90;;;;;;5055737;28;20208;-81
2023/07/29 05:03:24;;;;;;;2.25;1.27;;;21.60;99.90;;;;;;5056147;28;20228;-79
2023/07/29 05:05:56;;;;;;;4.43;1.50;;;21.50;99.90;;;;;;5064795;28;20276;-81
2023/07/29 05:08:26;;;;;;;4.35;1.55;;;21.50;99.90;;;;;;5075538;28;20219;-81
2023/07/29 05:10:59;;;;;;;2.97;1.20;;;21.40;99.90;;;;;;5075575;28;20191;-82
2023/07/29 05:13:30;;;;;;;2.38;1.10;;;21.30;99.90;;;;;;5071252;28;20197;-83
2023/07/29 05:16:01;;;;;;;3.30;1.00;;;21.30;99.90;;;;;;5066060;28;20272;-83
2023/07/29 05:18:31;;;;;;;3.92;1.30;;;21.20;99.90;;;;;;5074431;28;20572;-83
2023/07/29 05:21:02;;;;;;;2.47;1.17;;;21.20;99.90;;;;;;5075427;28;20268;-81
2023/07/29 05:23:33;;;;;;;2.95;1.23;;;21.20;99.90;;;;;;5075143;28;20189;-82
2023/07/29 05:26:06;;;;;;;3.17;1.05;;;21.10;99.90;;;;;;5075186;28;20193;-82
2023/07/29 05:28:36;;;;;;;4.63;1.10;;;21.00;99.90;;;;;;5074967;28;20223;-82
2023/07/29 05:31:07;;;;;;;3.35;1.08;;;21.00;99.90;;;;;;5074908;28;20532;-82
2023/07/29 05:33:38;;;;;;;3.08;1.40;;;20.90;99.90;;;;;;5075397;28;20238;-83
2023/07/29 05:36:09;;;;;;;3.88;1.40;;;20.90;99.90;;;;;;5074747;28;20705;-85
2023/07/29 05:38:40;;;;;;;4.47;1.42;;;20.80;99.90;;;;;;5056963;28;20244;-82
2023/07/29 05:41:13;;;;;;;4.63;1.42;;;20.80;99.90;;;;;;5054943;28;20196;-82
2023/07/29 05:43:45;;;;;;;2.70;1.27;;;20.80;99.90;;;;;;5054900;28;20192;-80
2023/07/29 05:46:15;;;;;;;2.85;1.33;;;20.80;99.90;;;;;;5054581;28;20606;-80
2023/07/29 05:48:46;;;;;;;2.78;1.20;;;20.70;99.90;;;;;;5054713;28;20221;-81
2023/07/29 05:51:17;;;;;;;5.22;1.20;;;20.70;99.90;;;;;;5055383;28;20196;-86
2023/07/29 05:53:48;;;;;;;8.80;1.50;;;20.60;99.90;;;;;;5074648;28;20189;-83
2023/07/29 05:56:21;;;;;;;4.45;1.35;;;20.60;99.90;;;;;;5074487;28;20199;-79
2023/07/29 05:58:51;;;;;;;2.22;1.05;;;20.60;99.90;;;;;;5075710;28;20189;-82
2023/07/29 06:01:23;;;;;;;3.08;1.20;;;20.50;99.90;;;;;;5074403;28;20629;-82
2023/07/29 06:03:53;;;;;;;2.83;1.20;;;20.50;99.90;;;;;;5074508;28;20197;-82
2023/07/29 06:06:24;;;;;;;3.40;1.30;;;20.40;99.90;;;;;;5072819;28;20200;-82
2023/07/29 06:08:55;;;;;;;3.38;1.40;;;20.30;99.90;;;;;;5072646;28;20619;-81
2023/07/29 06:11:28;;;;;;;2.60;1.20;;;20.20;99.90;;;;;;5072326;28;20185;-81
2023/07/29 06:13:59;;;;;;;5.68;1.50;;;20.10;99.90;;;;;;5058014;28;20212;-82
2023/07/29 06:16:29;;;;;;;17.13;11.75;;;20.00;99.90;;;;;;5054004;28;20197;-83
2023/07/29 06:19:01;;;;;;;8.60;1.40;;;20.00;99.90;;;;;;5054273;28;20605;-84
2023/07/29 06:21:31;;;;;;;5.80;1.38;;;20.00;99.90;;;;;;5054164;28;20197;-77
2023/07/29 06:24:03;;;;;;;4.60;1.40;;;19.90;99.90;;;;;;5054220;28;20193;-82
2023/07/29 06:26:35;;;;;;;3.15;1.40;;;19.90;99.90;;;;;;5054262;28;20229;-82
2023/07/29 06:29:06;;;;;;;6.70;1.95;;;19.90;99.90;;;;;;5053440;28;20312;-82
2023/07/29 06:31:37;;;;;;;3.97;1.60;;;19.80;99.90;;;;;;5053151;28;20579;-83
2023/07/29 06:34:08;;;;;;;6.15;1.30;;;19.80;99.90;;;;;;5053884;28;20280;-82
2023/07/29 06:36:38;;;;;;;6.47;2.38;;;19.70;99.90;;;;;;5053925;28;20193;-82
2023/07/29 06:39:09;;;;;;;5.43;1.40;;;19.70;99.90;;;;;;5053688;28;20713;-83
2023/07/29 06:41:42;;;;;;;2.75;1.20;;;19.70;99.90;;;;;;5053634;28;20547;-81
2023/07/29 06:44:13;;;;;;;4.28;1.40;;;19.60;99.90;;;;;;5053384;28;20189;-82
2023/07/29 06:46:44;;;;;;;2.83;1.05;;;19.60;99.90;;;;;;5053547;28;20637;-81
2023/07/29 06:49:15;;;;;;;2.40;1.00;;;19.60;99.90;;;;;;5054656;28;20249;-81
2023/07/29 06:51:46;;;;;;;5.13;1.15;;;19.50;99.90;;;;;;5053398;28;20196;-75
2023/07/29 06:54:16;;;;;;;1.58;1.08;;;19.40;99.90;;;;;;5053534;28;20604;-87
2023/07/29 06:56:49;;;;;;;2.67;1.40;;;19.30;99.90;;;;;;5053414;28;20554;-82
2023/07/29 06:59:20;;;;;;;2.92;1.50;;;19.30;99.90;;;;;;5053157;28;20525;-81
2023/07/29 07:01:51;;;;;;;4.05;1.45;;;19.20;99.90;;;;;;5053294;28;20229;-72
2023/07/29 07:04:21;;;;;;;3.33;1.30;;;19.10;99.90;;;;;;5054500;28;20268;-79
2023/07/29 07:06:52;;;;;;;3.55;1.52;;;19.10;99.90;;;;;;5053346;28;20221;-78
2023/07/29 07:09:23;;;;;;;3.58;1.73;;;18.90;99.90;;;;;;5061160;28;20299;-81
2023/07/29 07:11:56;;;;;;;3.22;1.52;;;18.90;99.90;;;;;;5053492;28;20193;-83
2023/07/29 07:14:27;;;;;;;3.45;1.38;;;18.80;99.90;;;;;;5053165;28;20198;-82
2023/07/29 07:16:58;;;;;;;1.77;1.40;;;18.80;99.90;;;;;;5053181;28;20194;-81
2023/07/29 07:19:28;;;;;;;3.42;1.30;;;18.70;99.90;;;;;;5052421;28;20189;-73
2023/07/29 07:21:59;;;;;;;1.77;1.40;;;18.60;99.90;;;;;;5053980;28;20207;-81
2023/07/29 07:24:30;;;;;;;3.83;1.40;;;18.50;99.90;;;;;;5053237;28;20186;-82
2023/07/29 07:27:02;;;;;;;2.58;1.38;;;18.50;99.90;;;;;;5053088;28;20196;-76
2023/07/29 07:29:33;;;;;;;4.55;1.90;;;18.40;99.90;;;;;;5053370;28;20300;-81
2023/07/29 07:32:04;;;;;;;7.78;3.78;;;18.40;99.90;;;;;;5053151;28;20198;-83
2023/07/29 07:34:35;;;;;;;8.25;3.65;;;18.30;99.90;;;;;;5053063;28;20284;-82
2023/07/29 07:37:06;;;;;;;5.53;2.60;;;18.20;99.90;;;;;;5053129;28;20258;-82
2023/07/29 07:39:36;;;;;;;3.38;2.35;;;18.20;99.90;;;;;;5053047;28;20568;-81
2023/07/29 07:42:09;;;;;;;2.45;1.90;;;18.10;99.90;;;;;;5054973;28;20243;-82
2023/07/29 07:44:40;;;;;;;3.33;2.10;;;18.00;99.90;;;;;;5056953;28;20193;-81
2023/07/29 07:47:11;;;;;;;3.55;2.17;;;18.00;99.90;;;;;;5057035;28;20190;-82
2023/07/29 07:49:42;;;;;;;4.53;2.30;;;17.90;99.90;;;;;;5058715;28;20209;-79
2023/07/29 07:52:12;;;;;;;3.10;2.13;;;17.90;99.90;;;;;;5056963;28;20280;-81
2023/07/29 07:54:43;;;;;;;3.83;2.33;;;17.80;99.90;;;;;;5056956;28;20190;-78
2023/07/29 07:57:16;;;;;;;4.03;2.17;;;17.70;99.90;;;;;;5064182;28;20189;-82
2023/07/29 07:59:47;;;;;;;4.07;2.50;;;17.70;99.90;;;;;;5077116;28;20193;-82
2023/07/29 08:02:17;;;;;;;5.32;2.75;;;17.70;99.90;;;;;;5076345;28;20239;-80
2023/07/29 08:04:48;;;;;;;4.88;2.88;;;17.60;99.90;;;;;;5076680;28;20656;-83
2023/07/29 08:07:19;;;;;;;6.60;3.88;;;17.60;99.90;;;;;;5076417;28;20281;-83
2023/07/29 08:09:50;;;;;;;5.72;3.35;;;17.50;99.90;;;;;;5076633;28;20220;-84
2023/07/29 08:12:22;;;;;;;6.03;3.47;;;17.50;99.90;;;;;;5067191;28;20200;-83
2023/07/29 08:14:53;;;;;;;8.90;4.60;;;17.40;99.90;;;;;;5056616;28;20185;-84
2023/07/29 08:17:24;;;;;;;8.20;4.30;;;17.40;99.90;;;;;;5056567;28;20197;-84
2023/07/29 08:19:55;;;;;;;7.97;3.92;;;17.40;99.90;;;;;;5056666;28;20193;-83
2023/07/29 08:22:25;;;;;;;6.47;3.45;;;17.40;99.90;;;;;;5056104;28;20196;-83
2023/07/29 08:24:56;;;;;;;5.60;3.05;;;17.30;99.90;;;;;;5056499;28;20225;-78
2023/07/29 08:27:29;;;;;;;9.25;3.60;;;17.30;99.90;;;;;;5068933;28;20194;-82
2023/07/29 08:30:00;;;;;;;6.72;3.15;;;17.20;99.90;;;;;;5074485;28;20223;-83
2023/07/29 08:32:31;;;;;;;5.78;3.53;;;17.20;99.90;;;;;;5076026;28;20193;-82
2023/07/29 08:35:01;;;;;;;5.50;3.38;;;17.10;99.90;;;;;;5076016;28;20657;-81
2023/07/29 08:37:33;;;;;;;6.45;3.25;;;17.10;99.90;;;;;;5074525;28;20557;-82
2023/07/29 08:40:04;;;;;;;6.80;3.80;;;17.00;99.90;;;;;;5055708;28;20194;-83
2023/07/29 08:42:39;;;;;;;5.70;3.67;;;17.00;99.90;;;;;;5055968;28;20188;-83
2023/07/29 08:45:12;;;;;;;7.22;3.45;;;17.00;99.90;;;;;;5056123;28;20633;-79
2023/07/29 08:47:42;;;;;;;7.22;2.85;;;17.00;99.90;;;;;;5056871;28;20248;-82
2023/07/29 08:50:14;;;;;;;5.72;2.97;;;16.90;99.90;;;;;;5055978;28;20685;-82
2023/07/29 08:52:46;;;;;;;5.13;3.00;;;16.90;99.90;;;;;;5054832;28;20729;-79
2023/07/29 08:55:17;;;;;;;7.20;3.40;;;16.80;99.90;;;;;;5055832;28;20193;-82
2023/07/29 08:57:50;;;;;;;4.50;3.33;;;16.80;99.90;;;;;;5056831;28;20571;-79
2023/07/29 09:00:21;;;;;;;4.45;2.95;;;16.70;99.90;;;;;;5055736;28;20196;-82
2023/07/29 09:02:52;;;;;;;4.85;3.00;;;16.70;99.90;;;;;;5055302;28;20226;-80
2023/07/29 09:05:24;;;;;;;6.55;3.38;;;16.70;99.90;;;;;;5068948;28;20189;-82
2023/07/29 09:07:56;;;;;;;6.15;3.70;;;16.70;99.90;;;;;;5075622;28;20189;-82
2023/07/29 09:10:29;;;;;;;6.10;3.78;;;16.70;99.90;;;;;;5075072;28;20220;-80
2023/07/29 09:13:03;;;;;;;4.75;3.40;;;16.60;99.90;;;;;;5075228;28;20588;-81
2023/07/29 09:15:34;;;;;;;5.50;3.70;;;16.60;99.90;;;;;;5073798;28;20193;-82
2023/07/29 09:18:13;;;;;;;6.53;3.60;;;16.50;99.90;;;;;;5075506;28;20185;-79
2023/07/29 09:20:44;;;;;;;6.78;3.92;;;16.50;99.90;;;;;;5075455;28;20652;-81
2023/07/29 09:23:15;;;;;;;7.88;4.40;;;16.40;99.90;;;;;;5073329;28;20193;-79
2023/07/29 09:25:48;;;;;;;7.47;4.32;;;16.40;99.90;;;;;;5075289;28;20184;-82
2023/07/29 09:28:21;;;;;;;6.90;4.50;;;16.40;99.90;;;;;;5072754;28;20641;-80
2023/07/29 09:30:52;;;;;;;8.27;4.28;;;16.30;99.90;;;;;;5081705;28;20213;-81
2023/07/29 09:33:23;;;;;;;9.48;5.28;;;16.30;99.90;;;;;;5067672;28;20193;-81
2023/07/29 09:35:55;;;;;;;8.35;5.80;;;16.30;99.90;;;;;;5054753;28;20248;-82
2023/07/29 09:38:30;;;;;;;9.98;6.88;;;16.20;99.90;;;;;;5055049;28;20200;-81
2023/07/29 09:41:01;;;;;;;10.25;7.30;;;16.20;99.90;;;;;;5055005;28;20193;-82
2023/07/29 09:43:36;;;;;;;11.18;6.53;;;16.20;99.90;;;;;;5055082;28;20190;-82
2023/07/29 09:46:08;;;;;;;10.02;6.97;;;16.10;99.90;;;;;;5054448;28;20204;-82
2023/07/29 09:48:41;;;;;;;11.77;8.10;;;16.10;99.90;;;;;;5074285;28;20242;-81
2023/07/29 09:51:15;;;;;;;10.45;7.85;;;16.00;99.90;;;;;;5073066;28;20283;-81
2023/07/29 09:53:47;;;;;;;11.73;7.43;;;16.00;99.90;;;;;;5054309;28;20534;-79
2023/07/29 09:56:18;;;;;;;8.35;6.70;;;16.00;99.90;;;;;;5054497;28;20186;-82
2023/07/29 09:58:52;;;;;;;9.50;6.75;;;15.90;99.90;;;;;;5054864;28;20637;-80
2023/07/29 10:01:23;;;;;;;10.30;6.32;;;15.90;99.90;;;;;;5054107;28;20186;-80
2023/07/29 10:03:56;;;;;;;9.55;7.15;;;15.90;99.90;;;;;;5054189;28;20193;-80
2023/07/29 10:06:27;;;;;;;12.25;6.68;;;15.90;99.90;;;;;;5069537;28;20189;-81
2023/07/29 10:08:58;;;;;;;10.25;6.78;;;15.80;99.90;;;;;;5068551;28;20652;-80
2023/07/29 10:11:30;;;;;;;9.60;6.30;;;15.80;99.90;;;;;;5054218;28;20196;-79
2023/07/29 10:14:04;;;;;;;8.45;5.60;;;15.70;99.90;;;;;;5054267;28;20192;-81
2023/07/29 10:16:36;;;;;;;7.97;5.20;;;15.70;99.90;;;;;;5055003;28;21788;-80
2023/07/29 10:19:10;;;;;;;8.82;5.38;;;15.70;99.90;;;;;;5053987;28;20204;-81
2023/07/29 10:21:50;;;;;;;7.55;5.28;;;15.70;99.90;;;;;;5053846;28;20185;-82
2023/07/29 10:24:34;;;;;;;8.38;5.40;;;15.70;99.90;;;;;;5057702;28;20204;-81
2023/07/29 10:27:05;;;;;;;8.02;5.00;;;15.70;99.90;;;;;;5060004;28;20189;-80
2023/07/29 10:29:43;;;;;;;10.50;5.53;;;15.60;99.90;;;;;;5061743;28;20211;-81
2023/07/29 10:32:15;;;;;;;8.77;4.82;;;15.60;99.90;;;;;;5053786;28;20190;-80
2023/07/29 10:34:47;;;;;;;8.77;5.20;;;15.60;99.90;;;;;;5061352;28;20320;-80
2023/07/29 10:37:17;;;;;;;8.57;4.95;;;15.60;99.90;;;;;;5072739;28;20237;-81
2023/07/29 10:39:56;;;;;;;8.05;5.38;;;15.50;99.90;;;;;;5073635;28;20200;-80
2023/07/29 10:42:27;;;;;;;11.65;6.05;;;15.50;99.90;;;;;;5073525;28;20193;-81
2023/07/29 10:45:00;;;;;;;8.30;5.20;;;15.50;99.90;;;;;;5073600;28;20199;-80
2023/07/29 10:47:32;;;;;;;8.55;5.00;;;15.40;99.90;;;;;;5060526;28;20190;-80
2023/07/29 10:50:03;;;;;;;6.28;4.43;;;15.40;99.90;;;;;;5056772;28;20247;-81
2023/07/29 10:52:42;;;;;;;9.57;5.10;;;15.40;99.90;;;;;;5066155;28;20189;-81
2023/07/29 10:55:30;;;;;;;8.93;4.63;;;15.40;99.90;;;;;;5072157;28;20226;-80
2023/07/29 10:58:13;;;;;;;5.82;4.32;;;15.40;99.90;;;;;;5053556;28;20189;-81
2023/07/29 11:00:48;;;;;;;8.65;4.57;;;15.30;99.90;;;;;;5053472;28;20194;-80
2023/07/29 11:03:19;;;;;;;6.97;4.65;;;15.30;99.90;;;;;;5053070;28;20232;-80
2023/07/29 11:05:51;;;;;;;7.15;4.65;;;15.30;99.90;;;;;;5052958;28;20190;-81
2023/07/29 11:08:29;;;;;;;8.90;4.50;;;15.30;99.90;;;;;;5053112;28;20195;-82
2023/07/29 11:11:14;;;;;;;7.53;4.70;;;15.30;99.90;;;;;;5053037;28;20235;-81
2023/07/29 11:13:46;;;;;;;7.30;4.40;;;15.20;99.90;;;;;;5056830;28;20189;-81
2023/07/29 11:16:21;;;;;;;7.72;4.60;;;15.20;99.90;;;;;;5069133;28;20189;-81
2023/07/29 11:18:52;;;;;;;7.57;4.57;;;15.10;99.90;;;;;;5073021;28;20185;-79
2023/07/29 11:21:24;;;;;;;9.07;5.30;;;15.10;99.90;;;;;;5066785;28;20224;-81
2023/07/29 11:23:58;;;;;;;7.93;4.82;;;15.10;99.90;;;;;;5053046;28;20196;-79
2023/07/29 11:26:29;;;;;;;6.65;4.07;;;15.00;99.90;;;;;;5055193;28;20190;-82
2023/07/29 11:29:00;;;;;;;9.13;4.88;;;15.00;99.90;;;;;;5073693;28;20211;-81
2023/07/29 11:31:45;;;;;;;9.40;4.60;;;15.00;99.90;;;;;;5073269;28;20644;-81
2023/07/29 11:34:20;;;;;;;8.00;4.60;;;14.90;99.90;;;;;;5072830;28;20224;-81
2023/07/29 11:36:50;;;;;;;7.63;4.22;;;14.90;99.90;;;;;;5073018;28;20695;-81
2023/07/29 11:39:21;;;;;;;8.05;4.68;;;14.90;99.90;;;;;;5073060;28;20268;-81
2023/07/29 11:41:52;;;;;;;6.70;4.60;;;14.90;99.90;;;;;;5072627;28;20193;-81
2023/07/29 11:44:23;;;;;;;8.52;4.85;;;14.90;99.90;;;;;;5070660;28;20196;-80
2023/07/29 11:46:56;;;;;;;8.55;4.72;;;14.90;99.90;;;;;;5072436;28;20191;-80
2023/07/29 11:49:27;;;;;;;7.75;4.72;;;14.90;99.90;;;;;;5072373;28;20193;-81
2023/07/29 11:52:00;;;;;;;7.55;4.80;;;14.90;99.90;;;;;;5072573;28;20196;-82
2023/07/29 11:54:31;;;;;;;7.40;4.93;;;14.90;99.90;;;;;;5072529;28;20191;-80
2023/07/29 11:57:02;;;;;;;7.78;4.68;;;14.90;99.90;;;;;;5072547;28;20629;-81
2023/07/29 11:59:34;;;;;;;6.50;4.43;;;14.90;99.90;;;;;;5053830;28;20200;-81
2023/07/29 12:02:11;;;;;;;7.30;4.85;;;14.80;99.90;;;;;;5071137;28;20236;-81
2023/07/29 12:04:43;;;;;;;7.45;4.25;;;14.80;99.90;;;;;;5072052;28;20195;-78
2023/07/29 12:07:15;;;;;;;7.00;4.50;;;14.80;99.90;;;;;;5070811;28;20605;-81
2023/07/29 12:09:46;;;;;;;7.43;4.40;;;14.70;99.90;;;;;;5072501;28;20526;-80
2023/07/29 12:12:18;;;;;;;7.28;4.57;;;14.70;99.90;;;;;;5072370;28;20282;-78
2023/07/29 12:14:49;;;;;;;6.63;4.60;;;14.70;99.90;;;;;;5072519;28;20189;-79
2023/07/29 12:17:22;;;;;;;8.50;4.78;;;14.70;99.90;;;;;;5072129;28;20671;-80
2023/07/29 12:19:56;;;;;;;6.88;4.72;;;14.70;99.90;;;;;;5072563;28;20204;-78
2023/07/29 12:22:28;;;;;;;7.88;4.72;;;14.60;99.90;;;;;;5071939;28;20200;-81
2023/07/29 12:24:59;;;;;;;8.77;5.45;;;14.60;99.90;;;;;;5072349;28;20641;-80
2023/07/29 12:27:29;;;;;;;9.98;5.53;;;14.60;99.90;;;;;;5073460;28;20555;-81
2023/07/29 12:30:02;;;;;;;9.07;4.97;;;14.50;99.90;;;;;;5076198;28;20189;-81
2023/07/29 12:32:35;;;;;;;7.85;4.95;;;14.40;99.90;;;;;;5074218;28;20190;-81
2023/07/29 12:35:12;;;;;;;8.02;5.30;;;14.40;99.90;;;;;;5076651;28;20227;-80
2023/07/29 12:37:43;;;;;;;8.95;5.30;;;14.40;99.90;;;;;;5076149;28;20189;-80
2023/07/29 12:40:25;;;;;;;8.30;5.20;;;14.30;99.90;;;;;;5071657;28;20189;-80
2023/07/29 12:42:57;;;;;;;8.43;5.90;;;14.40;99.90;;;;;;5055762;28;20544;-79
2023/07/29 12:45:28;;;;;;;8.70;5.55;;;14.30;99.90;;;;;;5055980;28;20302;-80
2023/07/29 12:48:01;;;;;;;9.43;5.72;;;14.30;99.90;;;;;;5055773;28;20194;-79
2023/07/29 12:50:32;;;;;;;11.55;7.03;;;14.30;99.90;;;;;;5056000;28;20218;-80
2023/07/29 12:53:02;;;;;;;11.10;6.35;;;14.30;99.90;;;;;;5055535;28;20209;-79
2023/07/29 12:55:33;;;;;;;10.65;6.70;;;14.20;99.90;;;;;;5056857;28;20634;-80
2023/07/29 12:58:04;;;;;;;12.25;6.30;;;14.20;99.90;;;;;;5055421;28;20194;-79
2023/07/29 13:00:35;;;;;;;11.23;6.07;;;14.20;99.90;;;;;;5055115;28;20205;-80
2023/07/29 13:03:07;;;;;;;10.68;6.35;;;14.20;99.90;;;;;;5055616;28;20230;-80
2023/07/29 13:05:38;;;;;;;10.90;6.60;;;14.10;99.90;;;;;;5059699;28;20193;-79
2023/07/29 13:08:10;;;;;;;9.25;6.63;;;14.10;99.90;;;;;;5075223;28;20633;-80
2023/07/29 13:10:41;;;;;;;11.13;6.05;;;14.10;99.90;;;;;;5075149;28;20225;-80